Terminal Aerodrome Forecast
Issued by NWS

Home | Current Version | Previous Version | Text Only | Print | Product List | Glossary On
Versions: 1 2 3 4 5 6 7 8 9 10 11 12 13 14 15
205
FTUS43 KJKL 221720
TAFSJS
TAF
KSJS 221720Z 2218/2318 11004KT P6SM VCSH BKN050
     FM222100 09005KT P6SM SHRA BKN035
     FM230600 05008KT 4SM SHRA VCTS OVC015CB
     FM230800 36008KT 4SM SHRA OVC008
     FM231200 01008KT 2SM -SHRA OVC003=

USA.gov is the U.S. government's official web portal to all federal, state and local government web resources and services.